sensor_id;sensor_type;location;lat;lon;timestamp;temperature;humidity
8261;DHT22;64115;50.170;8.242;2023-09-30T00:02:26;13.10;99.90
8261;DHT22;64115;50.170;8.242;2023-09-30T00:04:53;13.10;99.90
8261;DHT22;64115;50.170;8.242;2023-09-30T00:07:21;13.10;99.90
8261;DHT22;64115;50.170;8.242;2023-09-30T00:09:48;13.00;99.90
8261;DHT22;64115;50.170;8.242;2023-09-30T00:12:17;13.00;99.90
8261;DHT22;64115;50.170;8.242;2023-09-30T00:14:44;13.00;99.90
8261;DHT22;64115;50.170;8.242;2023-09-30T00:17:10;13.00;99.90
8261;DHT22;64115;50.170;8.242;2023-09-30T00:19:37;13.00;99.90
8261;DHT22;64115;50.170;8.242;2023-09-30T00:22:04;13.10;99.90
8261;DHT22;64115;50.170;8.242;2023-09-30T00:24:32;13.10;99.90
8261;DHT22;64115;50.170;8.242;2023-09-30T00:26:59;13.20;99.90
8261;DHT22;64115;50.170;8.242;2023-09-30T00:29:26;13.20;99.90
8261;DHT22;64115;50.170;8.242;2023-09-30T00:31:53;13.20;99.90
8261;DHT22;64115;50.170;8.242;2023-09-30T00:34:20;13.20;99.90
8261;DHT22;64115;50.170;8.242;2023-09-30T00:36:46;13.20;99.90
8261;DHT22;64115;50.170;8.242;2023-09-30T00:39:13;13.30;99.90
8261;DHT22;64115;50.170;8.242;2023-09-30T00:41:41;13.30;99.90
8261;DHT22;64115;50.170;8.242;2023-09-30T00:44:08;13.30;99.90
8261;DHT22;64115;50.170;8.242;2023-09-30T00:46:37;13.20;99.90
8261;DHT22;64115;50.170;8.242;2023-09-30T00:49:07;13.20;99.90
8261;DHT22;64115;50.170;8.242;2023-09-30T00:51:35;13.20;99.90
8261;DHT22;64115;50.170;8.242;2023-09-30T00:54:03;13.20;99.90
8261;DHT22;64115;50.170;8.242;2023-09-30T00:56:32;13.10;99.90
8261;DHT22;64115;50.170;8.242;2023-09-30T00:59:01;13.10;99.90
8261;DHT22;64115;50.170;8.242;2023-09-30T01:01:27;13.00;99.90
8261;DHT22;64115;50.170;8.242;2023-09-30T01:03:54;13.00;99.90
8261;DHT22;64115;50.170;8.242;2023-09-30T01:06:21;12.90;99.90
8261;DHT22;64115;50.170;8.242;2023-09-30T01:08:48;12.90;99.90
8261;DHT22;64115;50.170;8.242;2023-09-30T01:11:15;12.80;99.90
8261;DHT22;64115;50.170;8.242;2023-09-30T01:13:43;12.80;99.90
8261;DHT22;64115;50.170;8.242;2023-09-30T01:16:14;12.80;99.90
8261;DHT22;64115;50.170;8.242;2023-09-30T01:18:41;12.80;99.90
8261;DHT22;64115;50.170;8.242;2023-09-30T01:21:09;12.70;99.90
8261;DHT22;64115;50.170;8.242;2023-09-30T01:23:37;12.70;99.90
8261;DHT22;64115;50.170;8.242;2023-09-30T01:26:04;12.70;99.90
8261;DHT22;64115;50.170;8.242;2023-09-30T01:28:32;12.70;99.90
8261;DHT22;64115;50.170;8.242;2023-09-30T01:31:02;12.70;99.90
8261;DHT22;64115;50.170;8.242;2023-09-30T01:33:29;12.70;99.90
8261;DHT22;64115;50.170;8.242;2023-09-30T01:35:57;12.60;99.90
8261;DHT22;64115;50.170;8.242;2023-09-30T01:38:24;12.60;99.90
8261;DHT22;64115;50.170;8.242;2023-09-30T01:40:52;12.50;99.90
8261;DHT22;64115;50.170;8.242;2023-09-30T01:43:19;12.50;99.90
8261;DHT22;64115;50.170;8.242;2023-09-30T01:45:46;12.40;99.90
8261;DHT22;64115;50.170;8.242;2023-09-30T01:48:13;12.40;99.90
8261;DHT22;64115;50.170;8.242;2023-09-30T01:50:40;12.40;99.90
8261;DHT22;64115;50.170;8.242;2023-09-30T01:53:07;12.40;99.90
8261;DHT22;64115;50.170;8.242;2023-09-30T01:55:34;12.30;99.90
8261;DHT22;64115;50.170;8.242;2023-09-30T01:58:03;12.30;99.90
8261;DHT22;64115;50.170;8.242;2023-09-30T02:00:30;12.20;99.90
8261;DHT22;64115;50.170;8.242;2023-09-30T02:02:57;12.20;99.90
8261;DHT22;64115;50.170;8.242;2023-09-30T02:05:24;12.20;99.90
8261;DHT22;64115;50.170;8.242;2023-09-30T02:07:51;12.20;99.90
8261;DHT22;64115;50.170;8.242;2023-09-30T02:10:18;12.20;99.90
8261;DHT22;64115;50.170;8.242;2023-09-30T02:12:45;12.20;99.90
8261;DHT22;64115;50.170;8.242;2023-09-30T02:15:14;12.20;99.90
8261;DHT22;64115;50.170;8.242;2023-09-30T02:17:41;12.20;99.90
8261;DHT22;64115;50.170;8.242;2023-09-30T02:20:11;12.20;99.90
8261;DHT22;64115;50.170;8.242;2023-09-30T02:22:42;12.20;99.90
8261;DHT22;64115;50.170;8.242;2023-09-30T02:25:10;12.20;99.90
8261;DHT22;64115;50.170;8.242;2023-09-30T02:27:38;12.20;99.90
8261;DHT22;64115;50.170;8.242;2023-09-30T02:30:08;12.20;99.90
8261;DHT22;64115;50.170;8.242;2023-09-30T02:32:38;12.10;99.90
8261;DHT22;64115;50.170;8.242;2023-09-30T02:35:06;12.10;99.90
8261;DHT22;64115;50.170;8.242;2023-09-30T02:37:33;12.10;99.90
8261;DHT22;64115;50.170;8.242;2023-09-30T02:40:02;12.10;99.90
8261;DHT22;64115;50.170;8.242;2023-09-30T02:42:30;12.00;99.90
8261;DHT22;64115;50.170;8.242;2023-09-30T02:44:59;12.00;99.90
8261;DHT22;64115;50.170;8.242;2023-09-30T02:47:26;12.00;99.90
8261;DHT22;64115;50.170;8.242;2023-09-30T02:49:56;11.90;99.90
8261;DHT22;64115;50.170;8.242;2023-09-30T02:52:23;11.80;99.90
8261;DHT22;64115;50.170;8.242;2023-09-30T02:54:49;11.70;99.90
8261;DHT22;64115;50.170;8.242;2023-09-30T02:57:17;11.70;99.90
8261;DHT22;64115;50.170;8.242;2023-09-30T02:59:45;11.60;99.90
8261;DHT22;64115;50.170;8.242;2023-09-30T03:02:11;11.60;99.90
8261;DHT22;64115;50.170;8.242;2023-09-30T03:04:40;11.50;99.90
8261;DHT22;64115;50.170;8.242;2023-09-30T03:07:09;11.50;99.90
8261;DHT22;64115;50.170;8.242;2023-09-30T03:09:36;11.40;99.90
8261;DHT22;64115;50.170;8.242;2023-09-30T03:12:03;11.30;99.90
8261;DHT22;64115;50.170;8.242;2023-09-30T03:14:30;11.30;99.90
8261;DHT22;64115;50.170;8.242;2023-09-30T03:16:57;11.20;99.90
8261;DHT22;64115;50.170;8.242;2023-09-30T03:19:24;11.20;99.90
8261;DHT22;64115;50.170;8.242;2023-09-30T03:21:51;11.20;99.90
8261;DHT22;64115;50.170;8.242;2023-09-30T03:24:19;11.10;99.90
8261;DHT22;64115;50.170;8.242;2023-09-30T03:26:47;11.10;99.90
8261;DHT22;64115;50.170;8.242;2023-09-30T03:29:15;11.10;99.90
8261;DHT22;64115;50.170;8.242;2023-09-30T03:31:41;11.10;99.90
8261;DHT22;64115;50.170;8.242;2023-09-30T03:34:08;11.10;99.90
8261;DHT22;64115;50.170;8.242;2023-09-30T03:36:35;11.00;99.90
8261;DHT22;64115;50.170;8.242;2023-09-30T03:39:02;11.10;99.90
8261;DHT22;64115;50.170;8.242;2023-09-30T03:41:33;11.10;99.90
8261;DHT22;64115;50.170;8.242;2023-09-30T03:44:00;11.10;99.90
8261;DHT22;64115;50.170;8.242;2023-09-30T03:46:28;11.10;99.90
8261;DHT22;64115;50.170;8.242;2023-09-30T03:48:55;11.20;99.90
8261;DHT22;64115;50.170;8.242;2023-09-30T03:51:22;11.20;99.90
8261;DHT22;64115;50.170;8.242;2023-09-30T03:53:50;11.20;99.90
8261;DHT22;64115;50.170;8.242;2023-09-30T03:56:18;11.20;99.90
8261;DHT22;64115;50.170;8.242;2023-09-30T03:58:46;11.20;99.90
8261;DHT22;64115;50.170;8.242;2023-09-30T04:01:14;11.30;99.90
8261;DHT22;64115;50.170;8.242;2023-09-30T04:03:42;11.30;99.90
8261;DHT22;64115;50.170;8.242;2023-09-30T04:06:09;11.40;99.90
8261;DHT22;64115;50.170;8.242;2023-09-30T04:08:36;11.50;99.90
8261;DHT22;64115;50.170;8.242;2023-09-30T04:11:04;11.50;99.90
8261;DHT22;64115;50.170;8.242;2023-09-30T04:13:30;11.50;99.90
8261;DHT22;64115;50.170;8.242;2023-09-30T04:15:59;11.60;99.90
8261;DHT22;64115;50.170;8.242;2023-09-30T04:18:26;11.60;99.90
8261;DHT22;64115;50.170;8.242;2023-09-30T04:20:53;11.60;99.90
8261;DHT22;64115;50.170;8.242;2023-09-30T04:23:20;11.60;99.90
8261;DHT22;64115;50.170;8.242;2023-09-30T04:25:47;11.60;99.90
8261;DHT22;64115;50.170;8.242;2023-09-30T04:28:15;11.60;99.90
8261;DHT22;64115;50.170;8.242;2023-09-30T04:30:46;11.50;99.90
8261;DHT22;64115;50.170;8.242;2023-09-30T04:33:14;11.50;99.90
8261;DHT22;64115;50.170;8.242;2023-09-30T04:35:42;11.50;99.90
8261;DHT22;64115;50.170;8.242;2023-09-30T04:38:09;11.50;99.90
8261;DHT22;64115;50.170;8.242;2023-09-30T04:40:36;11.40;99.90
8261;DHT22;64115;50.170;8.242;2023-09-30T04:43:03;11.40;99.90
8261;DHT22;64115;50.170;8.242;2023-09-30T04:45:30;11.30;99.90
8261;DHT22;64115;50.170;8.242;2023-09-30T04:47:58;11.20;99.90
8261;DHT22;64115;50.170;8.242;2023-09-30T04:50:28;11.20;99.90
8261;DHT22;64115;50.170;8.242;2023-09-30T04:52:56;11.20;99.90
8261;DHT22;64115;50.170;8.242;2023-09-30T04:55:24;11.10;99.90
8261;DHT22;64115;50.170;8.242;2023-09-30T04:57:51;11.10;99.90
8261;DHT22;64115;50.170;8.242;2023-09-30T05:00:19;11.10;99.90
8261;DHT22;64115;50.170;8.242;2023-09-30T05:02:50;11.10;99.90
8261;DHT22;64115;50.170;8.242;2023-09-30T05:05:17;11.10;99.90
8261;DHT22;64115;50.170;8.242;2023-09-30T05:07:46;11.10;99.90
8261;DHT22;64115;50.170;8.242;2023-09-30T05:10:14;11.00;99.90
8261;DHT22;64115;50.170;8.242;2023-09-30T05:12:42;11.00;99.90
8261;DHT22;64115;50.170;8.242;2023-09-30T05:15:11;11.00;99.90
8261;DHT22;64115;50.170;8.242;2023-09-30T05:17:38;11.00;99.90
8261;DHT22;64115;50.170;8.242;2023-09-30T05:20:06;11.00;99.90
8261;DHT22;64115;50.170;8.242;2023-09-30T05:22:33;11.00;99.90
8261;DHT22;64115;50.170;8.242;2023-09-30T05:25:01;11.00;99.90
8261;DHT22;64115;50.170;8.242;2023-09-30T05:27:28;11.00;99.90
8261;DHT22;64115;50.170;8.242;2023-09-30T05:29:57;11.00;99.90
8261;DHT22;64115;50.170;8.242;2023-09-30T05:32:25;11.00;99.90
8261;DHT22;64115;50.170;8.242;2023-09-30T05:34:52;11.00;99.90
8261;DHT22;64115;50.170;8.242;2023-09-30T05:37:20;11.00;99.90
8261;DHT22;64115;50.170;8.242;2023-09-30T05:39:48;11.00;99.90
8261;DHT22;64115;50.170;8.242;2023-09-30T05:42:16;11.00;99.90
8261;DHT22;64115;50.170;8.242;2023-09-30T05:44:44;11.00;99.90
8261;DHT22;64115;50.170;8.242;2023-09-30T05:47:11;11.00;99.90
8261;DHT22;64115;50.170;8.242;2023-09-30T05:49:39;11.00;99.90
8261;DHT22;64115;50.170;8.242;2023-09-30T05:52:05;11.00;99.90
8261;DHT22;64115;50.170;8.242;2023-09-30T05:54:32;11.00;99.90
8261;DHT22;64115;50.170;8.242;2023-09-30T05:56:59;11.10;99.90
8261;DHT22;64115;50.170;8.242;2023-09-30T05:59:27;11.20;99.90
8261;DHT22;64115;50.170;8.242;2023-09-30T06:01:54;11.20;99.90
8261;DHT22;64115;50.170;8.242;2023-09-30T06:04:21;11.20;99.90
8261;DHT22;64115;50.170;8.242;2023-09-30T06:06:48;11.10;99.90
8261;DHT22;64115;50.170;8.242;2023-09-30T06:09:16;11.20;99.90
8261;DHT22;64115;50.170;8.242;2023-09-30T06:11:42;11.30;99.90
8261;DHT22;64115;50.170;8.242;2023-09-30T06:14:09;11.30;99.90
8261;DHT22;64115;50.170;8.242;2023-09-30T06:16:37;11.20;99.90
8261;DHT22;64115;50.170;8.242;2023-09-30T06:19:04;11.30;99.90
8261;DHT22;64115;50.170;8.242;2023-09-30T06:21:31;11.20;99.90
8261;DHT22;64115;50.170;8.242;2023-09-30T06:24:00;11.20;99.90
8261;DHT22;64115;50.170;8.242;2023-09-30T06:26:27;11.20;99.90
8261;DHT22;64115;50.170;8.242;2023-09-30T06:28:55;11.20;99.90
8261;DHT22;64115;50.170;8.242;2023-09-30T06:31:22;11.10;99.90
8261;DHT22;64115;50.170;8.242;2023-09-30T06:33:51;11.10;99.90
8261;DHT22;64115;50.170;8.242;2023-09-30T06:36:18;11.00;99.90
8261;DHT22;64115;50.170;8.242;2023-09-30T06:38:46;11.00;99.90
8261;DHT22;64115;50.170;8.242;2023-09-30T06:41:16;10.90;99.90
8261;DHT22;64115;50.170;8.242;2023-09-30T06:43:43;10.80;99.90
8261;DHT22;64115;50.170;8.242;2023-09-30T06:46:10;10.70;99.90
8261;DHT22;64115;50.170;8.242;2023-09-30T06:48:39;10.80;99.90
8261;DHT22;64115;50.170;8.242;2023-09-30T06:51:12;10.90;99.90
8261;DHT22;64115;50.170;8.242;2023-09-30T06:53:39;10.90;99.90
8261;DHT22;64115;50.170;8.242;2023-09-30T06:56:06;11.00;99.90
8261;DHT22;64115;50.170;8.242;2023-09-30T06:58:33;11.10;99.90
8261;DHT22;64115;50.170;8.242;2023-09-30T07:01:01;11.20;99.90
8261;DHT22;64115;50.170;8.242;2023-09-30T07:03:27;11.30;99.90
8261;DHT22;64115;50.170;8.242;2023-09-30T07:05:56;11.40;99.90
8261;DHT22;64115;50.170;8.242;2023-09-30T07:08:27;11.50;99.90
8261;DHT22;64115;50.170;8.242;2023-09-30T07:10:55;11.60;99.90
8261;DHT22;64115;50.170;8.242;2023-09-30T07:13:22;11.70;99.90
8261;DHT22;64115;50.170;8.242;2023-09-30T07:15:49;11.90;99.90
8261;DHT22;64115;50.170;8.242;2023-09-30T07:18:16;12.00;99.90
8261;DHT22;64115;50.170;8.242;2023-09-30T07:20:43;12.10;99.90
8261;DHT22;64115;50.170;8.242;2023-09-30T07:23:09;12.10;99.90
8261;DHT22;64115;50.170;8.242;2023-09-30T07:25:40;12.10;99.90
8261;DHT22;64115;50.170;8.242;2023-09-30T07:28:06;12.20;99.90
8261;DHT22;64115;50.170;8.242;2023-09-30T07:30:37;12.20;99.90
8261;DHT22;64115;50.170;8.242;2023-09-30T07:33:04;12.30;99.90
8261;DHT22;64115;50.170;8.242;2023-09-30T07:35:31;12.30;99.90
8261;DHT22;64115;50.170;8.242;2023-09-30T07:37:58;12.40;99.90
8261;DHT22;64115;50.170;8.242;2023-09-30T07:40:25;12.50;99.90
8261;DHT22;64115;50.170;8.242;2023-09-30T07:42:54;12.60;99.90
8261;DHT22;64115;50.170;8.242;2023-09-30T07:45:21;12.70;99.90
8261;DHT22;64115;50.170;8.242;2023-09-30T07:47:48;12.90;99.90
8261;DHT22;64115;50.170;8.242;2023-09-30T07:50:16;12.90;99.90
8261;DHT22;64115;50.170;8.242;2023-09-30T07:52:43;13.00;99.90
8261;DHT22;64115;50.170;8.242;2023-09-30T07:55:11;13.00;99.90
8261;DHT22;64115;50.170;8.242;2023-09-30T07:57:41;12.90;99.90
8261;DHT22;64115;50.170;8.242;2023-09-30T08:00:11;12.90;99.90
8261;DHT22;64115;50.170;8.242;2023-09-30T08:02:41;12.90;99.90
8261;DHT22;64115;50.170;8.242;2023-09-30T08:05:08;12.90;99.90
8261;DHT22;64115;50.170;8.242;2023-09-30T08:07:36;13.10;99.90
8261;DHT22;64115;50.170;8.242;2023-09-30T08:10:03;13.20;99.90
8261;DHT22;64115;50.170;8.242;2023-09-30T08:12:32;13.30;99.90
8261;DHT22;64115;50.170;8.242;2023-09-30T08:14:59;13.50;99.90
8261;DHT22;64115;50.170;8.242;2023-09-30T08:17:27;13.70;99.90
8261;DHT22;64115;50.170;8.242;2023-09-30T08:19:54;13.80;99.90
8261;DHT22;64115;50.170;8.242;2023-09-30T08:22:21;13.90;99.90
8261;DHT22;64115;50.170;8.242;2023-09-30T08:24:51;13.80;99.90
8261;DHT22;64115;50.170;8.242;2023-09-30T08:27:18;13.70;99.90
8261;DHT22;64115;50.170;8.242;2023-09-30T08:29:45;13.80;99.90
8261;DHT22;64115;50.170;8.242;2023-09-30T08:32:12;13.90;99.90
8261;DHT22;64115;50.170;8.242;2023-09-30T08:34:40;14.00;99.90
8261;DHT22;64115;50.170;8.242;2023-09-30T08:37:07;14.10;99.90
8261;DHT22;64115;50.170;8.242;2023-09-30T08:39:38;14.20;99.90
8261;DHT22;64115;50.170;8.242;2023-09-30T08:42:06;14.20;99.90
8261;DHT22;64115;50.170;8.242;2023-09-30T08:44:36;14.00;99.90
8261;DHT22;64115;50.170;8.242;2023-09-30T08:47:03;14.10;99.90
8261;DHT22;64115;50.170;8.242;2023-09-30T08:49:34;14.10;99.90
8261;DHT22;64115;50.170;8.242;2023-09-30T08:52:02;14.30;99.90
8261;DHT22;64115;50.170;8.242;2023-09-30T08:54:31;14.30;99.90
8261;DHT22;64115;50.170;8.242;2023-09-30T08:56:58;14.50;99.90
8261;DHT22;64115;50.170;8.242;2023-09-30T08:59:27;14.60;99.90
8261;DHT22;64115;50.170;8.242;2023-09-30T09:01:54;14.50;99.90
8261;DHT22;64115;50.170;8.242;2023-09-30T09:04:22;14.60;99.90
8261;DHT22;64115;50.170;8.242;2023-09-30T09:06:49;14.80;99.90
8261;DHT22;64115;50.170;8.242;2023-09-30T09:09:17;14.90;99.90
8261;DHT22;64115;50.170;8.242;2023-09-30T09:11:47;15.00;99.90
8261;DHT22;64115;50.170;8.242;2023-09-30T09:14:15;15.00;99.90
8261;DHT22;64115;50.170;8.242;2023-09-30T09:16:52;15.20;99.90
8261;DHT22;64115;50.170;8.242;2023-09-30T09:19:19;15.30;99.90
8261;DHT22;64115;50.170;8.242;2023-09-30T09:21:58;15.40;99.90
8261;DHT22;64115;50.170;8.242;2023-09-30T09:24:30;15.40;99.90
8261;DHT22;64115;50.170;8.242;2023-09-30T09:27:10;15.60;99.90
8261;DHT22;64115;50.170;8.242;2023-09-30T09:29:38;15.70;99.90
8261;DHT22;64115;50.170;8.242;2023-09-30T09:32:07;15.80;99.90
8261;DHT22;64115;50.170;8.242;2023-09-30T09:34:34;15.90;99.90
8261;DHT22;64115;50.170;8.242;2023-09-30T09:37:15;15.90;99.90
8261;DHT22;64115;50.170;8.242;2023-09-30T09:39:54;15.70;99.90
8261;DHT22;64115;50.170;8.242;2023-09-30T09:42:27;15.80;99.90
8261;DHT22;64115;50.170;8.242;2023-09-30T09:44:56;15.80;99.90
8261;DHT22;64115;50.170;8.242;2023-09-30T09:47:23;15.90;99.90
8261;DHT22;64115;50.170;8.242;2023-09-30T09:49:51;16.00;99.90
8261;DHT22;64115;50.170;8.242;2023-09-30T09:52:19;16.10;99.90
8261;DHT22;64115;50.170;8.242;2023-09-30T09:54:46;16.30;99.90
8261;DHT22;64115;50.170;8.242;2023-09-30T09:57:16;16.30;99.90
8261;DHT22;64115;50.170;8.242;2023-09-30T09:59:44;16.30;99.90
8261;DHT22;64115;50.170;8.242;2023-09-30T10:02:13;16.30;99.90
8261;DHT22;64115;50.170;8.242;2023-09-30T10:04:41;16.30;99.90
8261;DHT22;64115;50.170;8.242;2023-09-30T10:07:12;16.50;99.90
8261;DHT22;64115;50.170;8.242;2023-09-30T10:09:45;16.50;99.90
8261;DHT22;64115;50.170;8.242;2023-09-30T10:12:15;16.60;99.90
8261;DHT22;64115;50.170;8.242;2023-09-30T10:14:42;16.70;99.90
8261;DHT22;64115;50.170;8.242;2023-09-30T10:17:09;16.90;99.90
8261;DHT22;64115;50.170;8.242;2023-09-30T10:19:36;17.10;99.90
8261;DHT22;64115;50.170;8.242;2023-09-30T10:22:23;17.20;99.90
8261;DHT22;64115;50.170;8.242;2023-09-30T10:24:52;17.30;99.90
8261;DHT22;64115;50.170;8.242;2023-09-30T10:27:31;17.50;99.90
8261;DHT22;64115;50.170;8.242;2023-09-30T10:29:59;17.50;99.90
8261;DHT22;64115;50.170;8.242;2023-09-30T10:35:46;17.50;99.90
8261;DHT22;64115;50.170;8.242;2023-09-30T10:38:40;17.30;99.90
8261;DHT22;64115;50.170;8.242;2023-09-30T10:41:08;17.30;99.90
8261;DHT22;64115;50.170;8.242;2023-09-30T10:43:39;17.10;99.90
8261;DHT22;64115;50.170;8.242;2023-09-30T10:46:30;17.00;99.90
8261;DHT22;64115;50.170;8.242;2023-09-30T10:49:15;16.90;99.90
8261;DHT22;64115;50.170;8.242;2023-09-30T10:51:43;16.80;99.90
8261;DHT22;64115;50.170;8.242;2023-09-30T10:54:12;16.90;99.90
8261;DHT22;64115;50.170;8.242;2023-09-30T10:56:39;17.10;99.90
8261;DHT22;64115;50.170;8.242;2023-09-30T10:59:08;17.00;99.90
8261;DHT22;64115;50.170;8.242;2023-09-30T11:01:35;17.00;99.90
8261;DHT22;64115;50.170;8.242;2023-09-30T11:04:03;17.00;99.90
8261;DHT22;64115;50.170;8.242;2023-09-30T11:06:31;17.00;99.90
8261;DHT22;64115;50.170;8.242;2023-09-30T11:08:59;17.00;99.90
8261;DHT22;64115;50.170;8.242;2023-09-30T11:11:41;17.00;99.90
8261;DHT22;64115;50.170;8.242;2023-09-30T11:14:21;17.00;99.90
8261;DHT22;64115;50.170;8.242;2023-09-30T11:16:49;17.00;99.90
8261;DHT22;64115;50.170;8.242;2023-09-30T11:19:16;17.10;99.90
8261;DHT22;64115;50.170;8.242;2023-09-30T11:21:46;17.30;99.90
8261;DHT22;64115;50.170;8.242;2023-09-30T11:24:13;17.50;99.90
8261;DHT22;64115;50.170;8.242;2023-09-30T11:26:40;17.60;99.90
8261;DHT22;64115;50.170;8.242;2023-09-30T11:29:10;17.70;99.90
8261;DHT22;64115;50.170;8.242;2023-09-30T11:31:39;17.70;99.90
8261;DHT22;64115;50.170;8.242;2023-09-30T11:34:08;17.50;99.90
8261;DHT22;64115;50.170;8.242;2023-09-30T11:36:37;17.40;99.90
8261;DHT22;64115;50.170;8.242;2023-09-30T11:39:04;17.50;99.90
8261;DHT22;64115;50.170;8.242;2023-09-30T11:41:35;17.60;99.90
8261;DHT22;64115;50.170;8.242;2023-09-30T11:44:05;17.60;99.90
8261;DHT22;64115;50.170;8.242;2023-09-30T11:46:48;17.50;99.90
8261;DHT22;64115;50.170;8.242;2023-09-30T11:49:25;17.70;99.90
8261;DHT22;64115;50.170;8.242;2023-09-30T11:51:53;17.80;99.90
8261;DHT22;64115;50.170;8.242;2023-09-30T11:54:20;17.70;99.90
8261;DHT22;64115;50.170;8.242;2023-09-30T11:56:48;17.70;99.90
8261;DHT22;64115;50.170;8.242;2023-09-30T11:59:16;17.80;99.90
8261;DHT22;64115;50.170;8.242;2023-09-30T12:01:45;17.70;99.90
8261;DHT22;64115;50.170;8.242;2023-09-30T12:04:15;17.70;99.90
8261;DHT22;64115;50.170;8.242;2023-09-30T12:06:44;17.60;99.90
8261;DHT22;64115;50.170;8.242;2023-09-30T12:09:12;17.70;99.90
8261;DHT22;64115;50.170;8.242;2023-09-30T12:11:40;17.80;99.90
8261;DHT22;64115;50.170;8.242;2023-09-30T12:14:10;17.90;99.90
8261;DHT22;64115;50.170;8.242;2023-09-30T12:16:36;17.80;99.90
8261;DHT22;64115;50.170;8.242;2023-09-30T12:19:03;17.60;99.90
8261;DHT22;64115;50.170;8.242;2023-09-30T12:21:33;17.40;99.90
8261;DHT22;64115;50.170;8.242;2023-09-30T12:24:01;17.30;99.90
8261;DHT22;64115;50.170;8.242;2023-09-30T12:26:30;17.20;99.90
8261;DHT22;64115;50.170;8.242;2023-09-30T12:28:57;17.10;99.90
8261;DHT22;64115;50.170;8.242;2023-09-30T12:31:24;17.20;99.90
8261;DHT22;64115;50.170;8.242;2023-09-30T12:33:51;17.30;99.90
8261;DHT22;64115;50.170;8.242;2023-09-30T12:36:19;17.50;99.90
8261;DHT22;64115;50.170;8.242;2023-09-30T12:38:47;17.60;99.90
8261;DHT22;64115;50.170;8.242;2023-09-30T12:41:14;17.80;99.90
8261;DHT22;64115;50.170;8.242;2023-09-30T12:43:41;18.10;99.90
8261;DHT22;64115;50.170;8.242;2023-09-30T12:46:08;18.10;99.90
8261;DHT22;64115;50.170;8.242;2023-09-30T12:48:34;18.10;99.90
8261;DHT22;64115;50.170;8.242;2023-09-30T12:51:03;18.10;99.90
8261;DHT22;64115;50.170;8.242;2023-09-30T12:53:32;17.90;99.90
8261;DHT22;64115;50.170;8.242;2023-09-30T12:56:00;17.90;99.90
8261;DHT22;64115;50.170;8.242;2023-09-30T12:58:27;17.90;99.90
8261;DHT22;64115;50.170;8.242;2023-09-30T13:00:57;17.80;99.90
8261;DHT22;64115;50.170;8.242;2023-09-30T13:03:24;17.50;99.90
8261;DHT22;64115;50.170;8.242;2023-09-30T13:05:50;17.30;99.90
8261;DHT22;64115;50.170;8.242;2023-09-30T13:08:17;17.20;99.90
8261;DHT22;64115;50.170;8.242;2023-09-30T13:10:44;17.30;99.90
8261;DHT22;64115;50.170;8.242;2023-09-30T13:13:14;17.30;99.90
8261;DHT22;64115;50.170;8.242;2023-09-30T13:15:41;17.50;99.90
8261;DHT22;64115;50.170;8.242;2023-09-30T13:18:07;17.50;99.90
8261;DHT22;64115;50.170;8.242;2023-09-30T13:20:34;17.60;99.90
8261;DHT22;64115;50.170;8.242;2023-09-30T13:23:01;17.60;99.90
8261;DHT22;64115;50.170;8.242;2023-09-30T13:25:29;17.60;99.90
8261;DHT22;64115;50.170;8.242;2023-09-30T13:27:56;17.50;99.90
8261;DHT22;64115;50.170;8.242;2023-09-30T13:30:24;17.50;99.90
8261;DHT22;64115;50.170;8.242;2023-09-30T13:32:51;17.30;99.90
8261;DHT22;64115;50.170;8.242;2023-09-30T13:35:18;17.20;99.90
8261;DHT22;64115;50.170;8.242;2023-09-30T13:37:45;16.90;99.90
8261;DHT22;64115;50.170;8.242;2023-09-30T13:40:12;16.90;99.90
8261;DHT22;64115;50.170;8.242;2023-09-30T13:42:39;16.90;99.90
8261;DHT22;64115;50.170;8.242;2023-09-30T13:45:08;17.00;99.90
8261;DHT22;64115;50.170;8.242;2023-09-30T13:47:37;17.20;99.90
8261;DHT22;64115;50.170;8.242;2023-09-30T13:50:05;17.10;99.90
8261;DHT22;64115;50.170;8.242;2023-09-30T13:52:33;17.10;99.90
8261;DHT22;64115;50.170;8.242;2023-09-30T13:55:00;17.00;99.90
8261;DHT22;64115;50.170;8.242;2023-09-30T13:57:27;17.00;99.90
8261;DHT22;64115;50.170;8.242;2023-09-30T13:59:54;17.00;99.90
8261;DHT22;64115;50.170;8.242;2023-09-30T14:02:21;17.00;99.90
8261;DHT22;64115;50.170;8.242;2023-09-30T14:04:49;16.90;99.90
8261;DHT22;64115;50.170;8.242;2023-09-30T14:07:16;16.90;99.90
8261;DHT22;64115;50.170;8.242;2023-09-30T14:09:44;16.90;99.90
8261;DHT22;64115;50.170;8.242;2023-09-30T14:12:11;16.90;99.90
8261;DHT22;64115;50.170;8.242;2023-09-30T14:14:38;16.90;99.90
8261;DHT22;64115;50.170;8.242;2023-09-30T14:17:05;16.80;99.90
8261;DHT22;64115;50.170;8.242;2023-09-30T14:19:35;16.70;99.90
8261;DHT22;64115;50.170;8.242;2023-09-30T14:22:04;16.70;99.90
8261;DHT22;64115;50.170;8.242;2023-09-30T14:24:31;16.70;99.90
8261;DHT22;64115;50.170;8.242;2023-09-30T14:26:59;16.60;99.90
8261;DHT22;64115;50.170;8.242;2023-09-30T14:29:26;16.50;99.90
8261;DHT22;64115;50.170;8.242;2023-09-30T14:31:53;16.40;99.90
8261;DHT22;64115;50.170;8.242;2023-09-30T14:34:20;16.40;99.90
8261;DHT22;64115;50.170;8.242;2023-09-30T14:36:47;16.40;99.90
8261;DHT22;64115;50.170;8.242;2023-09-30T14:39:15;16.50;99.90
8261;DHT22;64115;50.170;8.242;2023-09-30T14:41:43;16.60;99.90
8261;DHT22;64115;50.170;8.242;2023-09-30T14:44:10;16.50;99.90
8261;DHT22;64115;50.170;8.242;2023-09-30T14:46:37;16.60;99.90
8261;DHT22;64115;50.170;8.242;2023-09-30T14:49:05;16.70;99.90
8261;DHT22;64115;50.170;8.242;2023-09-30T14:51:32;16.70;99.90
8261;DHT22;64115;50.170;8.242;2023-09-30T14:53:59;16.70;99.90
8261;DHT22;64115;50.170;8.242;2023-09-30T14:56:27;16.70;99.90
8261;DHT22;64115;50.170;8.242;2023-09-30T14:58:54;16.70;99.90
8261;DHT22;64115;50.170;8.242;2023-09-30T15:01:21;16.70;99.90
8261;DHT22;64115;50.170;8.242;2023-09-30T15:03:48;16.80;99.90
8261;DHT22;64115;50.170;8.242;2023-09-30T15:06:16;16.80;99.90
8261;DHT22;64115;50.170;8.242;2023-09-30T15:08:43;16.70;99.90
8261;DHT22;64115;50.170;8.242;2023-09-30T15:11:13;16.80;99.90
8261;DHT22;64115;50.170;8.242;2023-09-30T15:13:42;16.70;99.90
8261;DHT22;64115;50.170;8.242;2023-09-30T15:16:15;16.70;99.90
8261;DHT22;64115;50.170;8.242;2023-09-30T15:18:42;16.60;99.90
8261;DHT22;64115;50.170;8.242;2023-09-30T15:21:09;16.60;99.90
8261;DHT22;64115;50.170;8.242;2023-09-30T15:23:36;16.50;99.90
8261;DHT22;64115;50.170;8.242;2023-09-30T15:26:03;16.50;99.90
8261;DHT22;64115;50.170;8.242;2023-09-30T15:28:30;16.40;99.90
8261;DHT22;64115;50.170;8.242;2023-09-30T15:30:58;16.30;99.90
8261;DHT22;64115;50.170;8.242;2023-09-30T15:33:28;16.20;99.90
8261;DHT22;64115;50.170;8.242;2023-09-30T15:35:56;16.10;99.90
8261;DHT22;64115;50.170;8.242;2023-09-30T15:38:23;16.00;99.90
8261;DHT22;64115;50.170;8.242;2023-09-30T15:40:52;15.90;99.90
8261;DHT22;64115;50.170;8.242;2023-09-30T15:43:19;15.80;99.90
8261;DHT22;64115;50.170;8.242;2023-09-30T15:45:48;15.70;99.90
8261;DHT22;64115;50.170;8.242;2023-09-30T15:48:16;15.50;99.90
8261;DHT22;64115;50.170;8.242;2023-09-30T15:50:43;15.40;99.90
8261;DHT22;64115;50.170;8.242;2023-09-30T15:53:13;15.30;99.90
8261;DHT22;64115;50.170;8.242;2023-09-30T15:55:40;15.20;99.90